Time;durP1;ratioP1;P1;durP2;ratioP2;P2;SDS_P1;SDS_P2;PMS_P1;PMS_P2;Temp;Humidity;BMP_temperature;BMP_pressure;BME280_temperature;BME280_humidity;BME280_pressure;Samples;Min_cycle;Max_cycle;Signal;HPM_P1;HPM_P2
2023/08/14 00:01:48;;;;;;;0.00;0.00;;;21.30;99.90;;;;;;5091436;28;20218;-61
2023/08/14 00:04:13;;;;;;;0.00;0.00;;;21.30;99.90;;;;;;5093673;28;20180;-61
2023/08/14 00:06:39;;;;;;;0.00;0.00;;;21.30;99.90;;;;;;5095810;28;20271;-61
2023/08/14 00:09:04;;;;;;;0.00;0.00;;;21.30;99.90;;;;;;5095724;28;20179;-60
2023/08/14 00:11:30;;;;;;;0.05;0.00;;;21.30;99.90;;;;;;5095645;28;20517;-61
2023/08/14 00:13:56;;;;;;;0.00;0.00;;;21.30;99.90;;;;;;5095656;28;20766;-61
2023/08/14 00:16:23;;;;;;;0.00;0.00;;;21.30;99.90;;;;;;5095531;28;20184;-60
2023/08/14 00:18:48;;;;;;;0.00;0.00;;;21.30;99.90;;;;;;5095387;28;20211;-61
2023/08/14 00:21:14;;;;;;;0.00;0.00;;;21.30;99.90;;;;;;5095113;28;20239;-61
2023/08/14 00:23:39;;;;;;;0.00;0.00;;;21.30;99.90;;;;;;5095439;28;20628;-60
2023/08/14 00:26:05;;;;;;;0.00;0.00;;;21.40;99.90;;;;;;5095334;28;20176;-60
2023/08/14 00:28:31;;;;;;;0.00;0.00;;;21.50;99.90;;;;;;5094973;28;20258;-61
2023/08/14 00:30:57;;;;;;;0.00;0.00;;;21.40;99.90;;;;;;5095103;28;20279;-61
2023/08/14 00:33:22;;;;;;;0.00;0.00;;;21.40;99.90;;;;;;5095175;28;20263;-60
2023/08/14 00:35:48;;;;;;;0.00;0.00;;;21.40;99.90;;;;;;5095102;28;20533;-61
2023/08/14 00:38:13;;;;;;;0.00;0.00;;;21.40;99.90;;;;;;5094877;28;20641;-61
2023/08/14 00:40:39;;;;;;;0.00;0.00;;;21.40;99.90;;;;;;5094813;28;20195;-61
2023/08/14 00:43:05;;;;;;;0.00;0.00;;;21.40;99.90;;;;;;5094733;28;20218;-60
2023/08/14 00:45:31;;;;;;;0.00;0.00;;;21.40;99.90;;;;;;5094770;28;20172;-61
2023/08/14 00:47:57;;;;;;;0.00;0.00;;;21.40;99.90;;;;;;5094747;28;20180;-61
2023/08/14 00:50:22;;;;;;;0.00;0.00;;;21.40;99.90;;;;;;5094707;28;20646;-60
2023/08/14 00:52:54;;;;;;;0.00;0.00;;;21.40;99.90;;;;;;5094702;28;20267;-60
2023/08/14 00:55:22;;;;;;;0.00;0.00;;;21.40;99.90;;;;;;5094676;28;20188;-60
2023/08/14 00:57:50;;;;;;;0.00;0.00;;;21.40;99.90;;;;;;5094644;28;20168;-60
2023/08/14 01:00:16;;;;;;;0.00;0.00;;;21.40;99.90;;;;;;5094656;28;20176;-61
2023/08/14 01:02:43;;;;;;;0.00;0.00;;;21.40;99.90;;;;;;5094623;28;20176;-60
2023/08/14 01:05:09;;;;;;;0.00;0.00;;;21.50;99.90;;;;;;5094478;28;20176;-61
2023/08/14 01:07:35;;;;;;;0.00;0.00;;;21.50;99.90;;;;;;5094536;28;20175;-61
2023/08/14 01:10:02;;;;;;;0.00;0.00;;;21.50;99.90;;;;;;5094444;28;20176;-60
2023/08/14 01:12:51;;;;;;;0.00;0.00;;;21.50;99.90;;;;;;5094408;28;20194;-60
2023/08/14 01:15:26;;;;;;;0.00;0.00;;;21.50;99.90;;;;;;5093126;28;20264;-61
2023/08/14 01:17:55;;;;;;;0.00;0.00;;;21.50;99.90;;;;;;5094151;28;20175;-60
2023/08/14 01:20:24;;;;;;;0.00;0.00;;;21.40;99.90;;;;;;5094121;28;20237;-60
2023/08/14 01:23:03;;;;;;;0.00;0.00;;;21.40;99.90;;;;;;5094212;28;20184;-60
2023/08/14 01:25:33;;;;;;;0.00;0.00;;;21.40;99.90;;;;;;5094293;28;20555;-61
2023/08/14 01:28:01;;;;;;;0.00;0.00;;;21.40;99.90;;;;;;5093761;28;20180;-61
2023/08/14 01:30:27;;;;;;;0.00;0.00;;;21.40;99.90;;;;;;5094189;28;20188;-60
2023/08/14 01:32:53;;;;;;;0.00;0.00;;;21.40;99.90;;;;;;5093989;28;20176;-60
2023/08/14 01:35:21;;;;;;;0.00;0.00;;;21.40;99.90;;;;;;5093901;28;20312;-60
2023/08/14 01:38:28;;;;;;;0.00;0.00;;;21.40;99.90;;;;;;5093896;28;20552;-61
2023/08/14 01:41:03;;;;;;;0.00;0.00;;;21.50;99.90;;;;;;5093720;28;20211;-61
2023/08/14 01:43:37;;;;;;;0.00;0.00;;;21.50;99.90;;;;;;5093778;28;20183;-61
2023/08/14 01:46:05;;;;;;;0.00;0.00;;;21.50;99.90;;;;;;5093672;28;20225;-60
2023/08/14 01:48:31;;;;;;;0.10;0.10;;;21.50;99.90;;;;;;5093721;28;20233;-61
2023/08/14 01:50:58;;;;;;;0.00;0.00;;;21.50;99.90;;;;;;5093652;28;20228;-60
2023/08/14 01:53:23;;;;;;;0.00;0.00;;;21.50;99.90;;;;;;5093634;28;20221;-60
2023/08/14 01:55:49;;;;;;;0.00;0.00;;;21.50;99.90;;;;;;5093628;28;20642;-60
2023/08/14 01:58:14;;;;;;;0.00;0.00;;;21.50;99.90;;;;;;5093618;28;20172;-61
2023/08/14 02:00:40;;;;;;;0.00;0.00;;;21.50;99.90;;;;;;5093351;28;20311;-60
2023/08/14 02:03:06;;;;;;;0.00;0.00;;;21.50;99.90;;;;;;5093303;28;20234;-60
2023/08/14 02:05:31;;;;;;;0.00;0.00;;;21.50;99.90;;;;;;5093252;28;20265;-60
2023/08/14 02:07:57;;;;;;;0.00;0.00;;;21.50;99.90;;;;;;5093221;28;20180;-61
2023/08/14 02:10:22;;;;;;;0.00;0.00;;;21.50;99.90;;;;;;5093355;28;20179;-60
2023/08/14 02:12:48;;;;;;;0.00;0.00;;;21.40;99.90;;;;;;5093313;28;20176;-60
2023/08/14 02:15:14;;;;;;;0.00;0.00;;;21.50;99.90;;;;;;5092954;28;20271;-61
2023/08/14 02:17:39;;;;;;;0.00;0.00;;;21.50;99.90;;;;;;5093259;28;20689;-60
2023/08/14 02:20:05;;;;;;;0.00;0.00;;;21.50;99.90;;;;;;5092993;28;20168;-60
2023/08/14 02:22:31;;;;;;;0.00;0.00;;;21.50;99.90;;;;;;5092880;28;20629;-60
2023/08/14 02:24:56;;;;;;;0.00;0.00;;;21.50;99.90;;;;;;5092963;28;20174;-60
2023/08/14 02:27:22;;;;;;;0.00;0.00;;;21.50;99.90;;;;;;5092665;28;20172;-61
2023/08/14 02:29:47;;;;;;;0.00;0.00;;;21.50;99.90;;;;;;5092660;28;20710;-61
2023/08/14 02:32:13;;;;;;;0.00;0.00;;;21.50;99.90;;;;;;5092750;28;20558;-60
2023/08/14 02:34:44;;;;;;;0.00;0.00;;;21.50;99.90;;;;;;5092778;28;20607;-61
2023/08/14 02:37:11;;;;;;;0.10;0.10;;;21.60;99.90;;;;;;5092671;28;20173;-61
2023/08/14 02:39:36;;;;;;;0.10;0.10;;;21.60;99.90;;;;;;5092837;28;20183;-61
2023/08/14 02:42:02;;;;;;;0.00;0.00;;;21.60;99.90;;;;;;5092495;28;20208;-60
2023/08/14 02:44:27;;;;;;;0.00;0.00;;;21.60;99.90;;;;;;5092644;28;20178;-61
2023/08/14 02:46:53;;;;;;;0.00;0.00;;;21.60;99.90;;;;;;5092644;28;20288;-61
2023/08/14 02:49:19;;;;;;;0.00;0.00;;;21.60;99.90;;;;;;5092693;28;20182;-61
2023/08/14 02:51:44;;;;;;;0.00;0.00;;;21.70;99.90;;;;;;5092621;28;20184;-61
2023/08/14 02:54:10;;;;;;;0.10;0.10;;;21.70;99.90;;;;;;5092304;28;20176;-61
2023/08/14 02:56:36;;;;;;;0.00;0.00;;;21.70;99.90;;;;;;5092332;28;20180;-61
2023/08/14 02:59:02;;;;;;;0.00;0.00;;;21.70;99.90;;;;;;5092334;28;20201;-61
2023/08/14 03:01:27;;;;;;;0.00;0.00;;;21.70;99.90;;;;;;5092294;28;20231;-61
2023/08/14 03:03:53;;;;;;;0.47;0.47;;;21.70;99.90;;;;;;5092224;28;20168;-61
2023/08/14 03:06:18;;;;;;;0.00;0.00;;;21.70;99.90;;;;;;5092144;28;20172;-61
2023/08/14 03:08:44;;;;;;;0.00;0.00;;;21.70;99.90;;;;;;5092219;28;20172;-61
2023/08/14 03:11:09;;;;;;;0.00;0.00;;;21.70;99.90;;;;;;5092156;28;20546;-61
2023/08/14 03:13:35;;;;;;;0.17;0.17;;;21.70;99.90;;;;;;5092121;28;20180;-61
2023/08/14 03:16:00;;;;;;;0.00;0.00;;;21.70;99.90;;;;;;5092009;28;20172;-61
2023/08/14 03:18:26;;;;;;;0.00;0.00;;;21.60;99.90;;;;;;5091944;28;20180;-61
2023/08/14 03:20:51;;;;;;;0.00;0.00;;;21.60;99.90;;;;;;5091992;28;20292;-61
2023/08/14 03:23:17;;;;;;;0.00;0.00;;;21.50;99.90;;;;;;5091903;28;20762;-61
2023/08/14 03:25:42;;;;;;;0.00;0.00;;;21.50;99.90;;;;;;5092029;28;20168;-61
2023/08/14 03:28:08;;;;;;;0.00;0.00;;;21.40;99.90;;;;;;5091694;28;20216;-61
2023/08/14 03:30:33;;;;;;;0.00;0.00;;;21.40;99.90;;;;;;5091694;28;20640;-61
2023/08/14 03:32:59;;;;;;;0.00;0.00;;;21.40;99.90;;;;;;5091794;28;20176;-61
2023/08/14 03:35:24;;;;;;;0.00;0.00;;;21.30;99.90;;;;;;5091666;28;20568;-61
2023/08/14 03:37:50;;;;;;;0.00;0.00;;;21.30;99.90;;;;;;5091088;28;20195;-61
2023/08/14 03:40:16;;;;;;;0.00;0.00;;;21.30;99.90;;;;;;5091638;28;20182;-61
2023/08/14 03:42:41;;;;;;;0.00;0.00;;;21.20;99.90;;;;;;5091624;28;20215;-61
2023/08/14 03:45:07;;;;;;;0.00;0.00;;;21.20;99.90;;;;;;5091720;28;20176;-61
2023/08/14 03:47:33;;;;;;;0.00;0.00;;;21.10;99.90;;;;;;5091801;28;20179;-61
2023/08/14 03:49:58;;;;;;;0.45;0.20;;;21.10;99.90;;;;;;5091714;28;20217;-61
2023/08/14 03:52:24;;;;;;;0.00;0.00;;;21.10;99.90;;;;;;5091881;28;20225;-61
2023/08/14 03:54:49;;;;;;;0.00;0.00;;;21.10;99.90;;;;;;5091745;28;20583;-61
2023/08/14 03:57:15;;;;;;;0.00;0.00;;;21.10;99.90;;;;;;5091773;28;20172;-61
2023/08/14 03:59:40;;;;;;;0.00;0.00;;;21.10;99.90;;;;;;5091776;28;20172;-61
2023/08/14 04:02:06;;;;;;;0.00;0.00;;;21.10;99.90;;;;;;5091536;28;20222;-61
2023/08/14 04:04:31;;;;;;;0.00;0.00;;;21.00;99.90;;;;;;5091618;28;20180;-61
2023/08/14 04:06:58;;;;;;;0.00;0.00;;;21.00;99.90;;;;;;5091618;28;20711;-61
2023/08/14 04:09:23;;;;;;;0.00;0.00;;;21.00;99.90;;;;;;5091506;28;20271;-60
2023/08/14 04:11:49;;;;;;;0.00;0.00;;;20.90;99.90;;;;;;5091548;28;20259;-60
2023/08/14 04:14:15;;;;;;;0.00;0.00;;;20.90;99.90;;;;;;5091389;28;20168;-60
2023/08/14 04:16:43;;;;;;;0.00;0.00;;;20.90;99.90;;;;;;5091583;28;20187;-60
2023/08/14 04:19:14;;;;;;;0.00;0.00;;;20.90;99.90;;;;;;5091244;28;20647;-61
2023/08/14 04:21:40;;;;;;;0.00;0.00;;;20.90;99.90;;;;;;5091490;28;20220;-60
2023/08/14 04:24:07;;;;;;;0.10;0.10;;;20.80;99.90;;;;;;5091418;28;20224;-60
2023/08/14 04:26:32;;;;;;;0.00;0.00;;;20.80;99.90;;;;;;5091272;28;20524;-61
2023/08/14 04:28:58;;;;;;;0.00;0.00;;;20.80;99.90;;;;;;5091109;28;20307;-60
2023/08/14 04:31:23;;;;;;;0.00;0.00;;;20.80;99.90;;;;;;5091397;28;20207;-60
2023/08/14 04:33:49;;;;;;;0.00;0.00;;;20.80;99.90;;;;;;5091484;28;20181;-60
2023/08/14 04:36:14;;;;;;;0.00;0.00;;;20.80;99.90;;;;;;5091319;28;20256;-60
2023/08/14 04:38:40;;;;;;;0.00;0.00;;;20.80;99.90;;;;;;5091395;28;20208;-60
2023/08/14 04:41:05;;;;;;;0.00;0.00;;;20.70;99.90;;;;;;5091178;28;20208;-60
2023/08/14 04:43:31;;;;;;;0.00;0.00;;;20.70;99.90;;;;;;5091327;28;20172;-60
2023/08/14 04:46:10;;;;;;;0.00;0.00;;;20.70;99.90;;;;;;5091273;28;20191;-60
2023/08/14 04:48:35;;;;;;;0.00;0.00;;;20.70;99.90;;;;;;5090986;28;20172;-61
2023/08/14 04:51:01;;;;;;;0.00;0.00;;;20.70;99.90;;;;;;5094085;28;20676;-61
2023/08/14 04:53:26;;;;;;;0.10;0.10;;;20.80;99.90;;;;;;5094593;28;20663;-61
2023/08/14 04:55:52;;;;;;;0.00;0.00;;;20.80;99.90;;;;;;5094446;28;20175;-61
2023/08/14 04:58:17;;;;;;;0.00;0.00;;;20.80;99.90;;;;;;5094541;28;20187;-61
2023/08/14 05:00:42;;;;;;;0.08;0.08;;;20.90;99.90;;;;;;5094666;28;20206;-61
2023/08/14 05:03:08;;;;;;;0.00;0.00;;;20.90;99.90;;;;;;5094467;28;20824;-61
2023/08/14 05:05:34;;;;;;;0.00;0.00;;;21.00;99.90;;;;;;5094261;28;20232;-61
2023/08/14 05:07:59;;;;;;;0.00;0.00;;;21.20;99.90;;;;;;5094337;28;20172;-61
2023/08/14 05:10:25;;;;;;;0.00;0.00;;;21.40;99.90;;;;;;5094398;28;20225;-61
2023/08/14 05:12:50;;;;;;;0.10;0.10;;;21.60;99.90;;;;;;5094271;28;20180;-61
2023/08/14 05:15:16;;;;;;;0.00;0.00;;;22.00;99.90;;;;;;5094310;28;20184;-61
2023/08/14 05:17:41;;;;;;;0.00;0.00;;;22.40;99.90;;;;;;5094295;28;20172;-61
2023/08/14 05:20:08;;;;;;;0.00;0.00;;;22.80;99.90;;;;;;5094129;28;20176;-61
2023/08/14 05:22:34;;;;;;;0.00;0.00;;;23.30;99.90;;;;;;5093969;28;20661;-61
2023/08/14 05:25:00;;;;;;;0.00;0.00;;;23.70;99.90;;;;;;5094000;28;20186;-61
2023/08/14 05:27:25;;;;;;;0.00;0.00;;;24.10;99.90;;;;;;5094055;28;20603;-61
2023/08/14 05:29:51;;;;;;;0.00;0.00;;;24.40;99.90;;;;;;5093690;28;20318;-61
2023/08/14 05:32:16;;;;;;;0.00;0.00;;;24.70;99.90;;;;;;5093797;28;20176;-61
2023/08/14 05:34:42;;;;;;;0.00;0.00;;;24.70;99.90;;;;;;5093956;28;20172;-61
2023/08/14 05:37:07;;;;;;;0.00;0.00;;;24.70;99.90;;;;;;5093766;28;20179;-61
2023/08/14 05:39:33;;;;;;;0.00;0.00;;;24.70;99.90;;;;;;5093776;28;20183;-61
2023/08/14 05:41:58;;;;;;;0.10;0.10;;;24.60;99.90;;;;;;5093678;28;20219;-61
2023/08/14 05:44:24;;;;;;;0.00;0.00;;;24.40;99.90;;;;;;5093801;28;20172;-61
2023/08/14 05:46:50;;;;;;;0.10;0.10;;;24.20;99.90;;;;;;5093732;28;20180;-61
2023/08/14 05:49:16;;;;;;;0.15;0.05;;;24.00;99.90;;;;;;5093630;28;20251;-60
2023/08/14 05:51:41;;;;;;;0.00;0.00;;;23.90;99.90;;;;;;5093605;28;20294;-61
2023/08/14 05:54:07;;;;;;;0.00;0.00;;;23.80;99.90;;;;;;5093407;28;20639;-61
2023/08/14 05:56:32;;;;;;;0.00;0.00;;;23.70;99.90;;;;;;5093501;28;20589;-61
2023/08/14 05:58:58;;;;;;;0.00;0.00;;;23.60;99.90;;;;;;5093411;28;20175;-61
2023/08/14 06:01:24;;;;;;;0.00;0.00;;;23.70;99.90;;;;;;5092620;28;20208;-61
2023/08/14 06:03:49;;;;;;;0.00;0.00;;;23.90;99.90;;;;;;5093364;28;20168;-61
2023/08/14 06:06:15;;;;;;;0.00;0.00;;;24.20;99.90;;;;;;5093189;28;20176;-61
2023/08/14 06:08:41;;;;;;;0.00;0.00;;;24.60;99.90;;;;;;5093130;28;20191;-61
2023/08/14 06:11:06;;;;;;;0.00;0.00;;;25.30;99.90;;;;;;5093085;28;20168;-61
2023/08/14 06:13:32;;;;;;;0.05;0.05;;;25.40;99.90;;;;;;5093142;28;20179;-61
2023/08/14 06:15:58;;;;;;;0.00;0.00;;;25.20;99.90;;;;;;5093080;28;20581;-61
2023/08/14 06:18:24;;;;;;;0.00;0.00;;;25.00;99.90;;;;;;5093099;28;20183;-61
2023/08/14 06:20:53;;;;;;;0.00;0.00;;;24.80;99.90;;;;;;5093056;28;20208;-61
2023/08/14 06:23:19;;;;;;;0.00;0.00;;;24.50;99.90;;;;;;5093026;28;20180;-61
2023/08/14 06:25:44;;;;;;;0.00;0.00;;;24.40;99.90;;;;;;5093036;28;20247;-61
2023/08/14 06:28:10;;;;;;;0.15;0.15;;;24.40;99.90;;;;;;5092557;28;20303;-61
2023/08/14 06:30:35;;;;;;;0.00;0.00;;;24.40;99.90;;;;;;5092922;28;20526;-61
2023/08/14 06:33:01;;;;;;;0.00;0.00;;;24.50;99.90;;;;;;5092632;28;20183;-61
2023/08/14 06:35:27;;;;;;;0.00;0.00;;;24.90;99.90;;;;;;5092829;28;20172;-61
2023/08/14 06:37:52;;;;;;;0.00;0.00;;;25.90;99.90;;;;;;5092688;28;20172;-61
2023/08/14 06:40:18;;;;;;;0.00;0.00;;;27.10;99.90;;;;;;5092471;28;20628;-61
2023/08/14 06:42:43;;;;;;;0.00;0.00;;;28.30;99.90;;;;;;5092626;28;20223;-61
2023/08/14 06:45:09;;;;;;;0.20;0.10;;;29.40;99.90;;;;;;5092550;28;20175;-62
2023/08/14 06:47:43;;;;;;;0.00;0.00;;;29.90;99.90;;;;;;5091253;28;20183;-61
2023/08/14 06:50:08;;;;;;;0.00;0.00;;;30.60;99.90;;;;;;5092427;28;20196;-61
2023/08/14 06:52:34;;;;;;;0.00;0.00;;;31.30;99.90;;;;;;5092236;28;20650;-62
2023/08/14 06:54:59;;;;;;;0.10;0.10;;;32.00;99.90;;;;;;5092312;28;20180;-61
2023/08/14 06:57:25;;;;;;;0.00;0.00;;;32.70;99.00;;;;;;5092355;28;20574;-61
2023/08/14 06:59:50;;;;;;;0.00;0.00;;;33.30;97.80;;;;;;5092178;28;20180;-62
2023/08/14 07:02:16;;;;;;;0.10;0.10;;;34.00;95.30;;;;;;5092169;28;20245;-61
2023/08/14 07:04:42;;;;;;;0.00;0.00;;;34.30;93.60;;;;;;5092046;28;20175;-62
2023/08/14 07:07:07;;;;;;;0.00;0.00;;;33.70;92.70;;;;;;5092216;28;20171;-62
2023/08/14 07:09:33;;;;;;;0.00;0.00;;;33.40;93.60;;;;;;5092319;28;20654;-61
2023/08/14 07:11:59;;;;;;;0.00;0.00;;;32.90;93.20;;;;;;5092373;28;20215;-61
2023/08/14 07:14:24;;;;;;;0.15;0.15;;;32.20;93.80;;;;;;5090257;28;20653;-61
2023/08/14 07:16:50;;;;;;;0.00;0.00;;;31.80;95.00;;;;;;5092471;28;20179;-61
2023/08/14 07:19:17;;;;;;;0.00;0.00;;;32.10;95.40;;;;;;5092362;28;20582;-61
2023/08/14 07:21:44;;;;;;;0.00;0.00;;;32.70;94.90;;;;;;5092370;28;20674;-61
2023/08/14 07:24:09;;;;;;;0.00;0.00;;;33.60;93.80;;;;;;5092222;28;20210;-61
2023/08/14 07:26:35;;;;;;;0.00;0.00;;;34.30;92.10;;;;;;5092162;28;20199;-61
2023/08/14 07:29:00;;;;;;;0.00;0.00;;;34.80;90.00;;;;;;5091967;28;20219;-61
2023/08/14 07:31:26;;;;;;;0.00;0.00;;;35.20;87.90;;;;;;5092247;28;20183;-61
2023/08/14 07:33:51;;;;;;;0.32;0.32;;;35.70;86.70;;;;;;5090769;28;20174;-61
2023/08/14 07:36:17;;;;;;;0.00;0.00;;;36.20;84.80;;;;;;5091944;28;20261;-61
2023/08/14 07:38:42;;;;;;;0.10;0.10;;;36.60;83.60;;;;;;5092096;28;20182;-61
2023/08/14 07:41:08;;;;;;;0.00;0.00;;;36.70;78.00;;;;;;5091856;28;20290;-61
2023/08/14 07:43:33;;;;;;;0.00;0.00;;;37.00;78.00;;;;;;5091922;28;20183;-59
2023/08/14 07:45:59;;;;;;;0.13;0.13;;;36.90;76.60;;;;;;5091893;28;20180;-59
2023/08/14 07:48:24;;;;;;;0.00;0.00;;;37.00;74.80;;;;;;5091913;28;20190;-59
2023/08/14 07:50:52;;;;;;;0.00;0.00;;;37.00;75.90;;;;;;5091804;28;20179;-59
2023/08/14 07:53:18;;;;;;;0.10;0.10;;;37.10;73.50;;;;;;5091738;28;20254;-59
2023/08/14 07:55:43;;;;;;;0.00;0.00;;;37.10;73.70;;;;;;5091854;28;20766;-59
2023/08/14 07:58:09;;;;;;;0.35;0.10;;;37.40;73.20;;;;;;5091804;28;20254;-59
2023/08/14 08:00:35;;;;;;;0.00;0.00;;;37.80;72.30;;;;;;5091602;28;20258;-59
2023/08/14 08:03:01;;;;;;;0.00;0.00;;;38.30;70.10;;;;;;5091628;28;20229;-59
2023/08/14 08:05:26;;;;;;;0.10;0.10;;;38.60;70.10;;;;;;5091682;28;20179;-59
2023/08/14 08:07:52;;;;;;;0.00;0.00;;;38.80;69.20;;;;;;5091493;28;20183;-59
2023/08/14 08:10:17;;;;;;;0.00;0.00;;;38.90;66.80;;;;;;5091561;28;20183;-59
2023/08/14 08:12:43;;;;;;;0.03;0.03;;;38.90;67.60;;;;;;5091730;28;20171;-59
2023/08/14 08:15:09;;;;;;;0.00;0.00;;;38.90;64.20;;;;;;5091547;28;20202;-59
2023/08/14 08:17:35;;;;;;;0.00;0.00;;;38.50;63.70;;;;;;5091576;28;20635;-59
2023/08/14 08:20:01;;;;;;;0.00;0.00;;;38.40;65.10;;;;;;5091558;28;20239;-59
2023/08/14 08:22:26;;;;;;;0.00;0.00;;;38.30;65.10;;;;;;5091601;28;20206;-61
2023/08/14 08:24:52;;;;;;;0.00;0.00;;;38.30;63.30;;;;;;5092963;28;20179;-60
2023/08/14 08:27:17;;;;;;;0.00;0.00;;;38.20;63.00;;;;;;5095560;28;20171;-61
2023/08/14 08:29:43;;;;;;;0.00;0.00;;;38.20;64.20;;;;;;5095447;28;20552;-61
2023/08/14 08:32:08;;;;;;;0.00;0.00;;;37.90;60.80;;;;;;5095361;28;20256;-60
2023/08/14 08:34:35;;;;;;;0.00;0.00;;;37.50;62.60;;;;;;5095377;28;20171;-61
2023/08/14 08:37:00;;;;;;;0.00;0.00;;;37.40;62.90;;;;;;5095246;28;20175;-60
2023/08/14 08:39:26;;;;;;;0.00;0.00;;;37.20;62.50;;;;;;5095486;28;20236;-61
2023/08/14 08:41:53;;;;;;;0.00;0.00;;;36.90;62.90;;;;;;5095207;28;20172;-60
2023/08/14 08:44:24;;;;;;;0.00;0.00;;;36.50;62.00;;;;;;5095202;28;20179;-61
2023/08/14 08:46:58;;;;;;;0.00;0.00;;;36.00;64.30;;;;;;5095204;28;20183;-61
2023/08/14 08:49:24;;;;;;;0.00;0.00;;;35.60;65.90;;;;;;5095144;28;20638;-61
2023/08/14 08:51:52;;;;;;;0.00;0.00;;;35.40;68.00;;;;;;5095135;28;21068;-61
2023/08/14 08:54:18;;;;;;;0.00;0.00;;;35.20;68.60;;;;;;5094986;28;20641;-61
2023/08/14 08:56:44;;;;;;;0.00;0.00;;;35.10;69.10;;;;;;5095067;28;20541;-61
2023/08/14 08:59:11;;;;;;;0.00;0.00;;;35.00;69.20;;;;;;5094876;28;20171;-61
2023/08/14 09:01:38;;;;;;;0.17;0.17;;;35.00;68.50;;;;;;5094906;28;20556;-61
2023/08/14 09:04:04;;;;;;;0.00;0.00;;;35.10;68.80;;;;;;5094840;28;20232;-61
2023/08/14 09:06:30;;;;;;;0.00;0.00;;;35.30;68.10;;;;;;5094928;28;20210;-61
2023/08/14 09:08:56;;;;;;;0.00;0.00;;;35.40;68.60;;;;;;5094879;28;20175;-61
2023/08/14 09:11:22;;;;;;;0.00;0.00;;;35.30;67.30;;;;;;5094556;28;20256;-61
2023/08/14 09:13:48;;;;;;;0.00;0.00;;;35.00;66.70;;;;;;5094661;28;20172;-61
2023/08/14 09:16:15;;;;;;;0.00;0.00;;;35.20;67.30;;;;;;5094431;28;20657;-61
2023/08/14 09:18:43;;;;;;;0.00;0.00;;;35.20;68.70;;;;;;5094689;28;20179;-61
2023/08/14 09:21:08;;;;;;;0.00;0.00;;;34.90;67.40;;;;;;5094445;28;20721;-61
2023/08/14 09:23:35;;;;;;;0.00;0.00;;;35.10;71.60;;;;;;5094516;28;20270;-61
2023/08/14 09:26:01;;;;;;;0.00;0.00;;;35.30;68.50;;;;;;5094442;28;20172;-61
2023/08/14 09:28:26;;;;;;;0.00;0.00;;;35.50;68.70;;;;;;5094335;28;20237;-61
2023/08/14 09:30:52;;;;;;;0.00;0.00;;;35.70;69.80;;;;;;5094173;28;20211;-62
2023/08/14 09:33:19;;;;;;;0.00;0.00;;;36.00;68.00;;;;;;5094266;28;20240;-61
2023/08/14 09:35:53;;;;;;;0.00;0.00;;;36.30;66.40;;;;;;5093573;28;20180;-61
2023/08/14 09:38:18;;;;;;;0.00;0.00;;;36.80;67.40;;;;;;5094019;28;20587;-61
2023/08/14 09:40:44;;;;;;;0.00;0.00;;;37.00;66.10;;;;;;5094203;28;20176;-61
2023/08/14 09:43:12;;;;;;;0.00;0.00;;;37.00;66.30;;;;;;5094019;28;20203;-61
2023/08/14 09:45:37;;;;;;;0.00;0.00;;;37.00;64.40;;;;;;5094119;28;20183;-61
2023/08/14 09:48:03;;;;;;;0.00;0.00;;;36.90;63.10;;;;;;5094042;28;20186;-61
2023/08/14 09:50:31;;;;;;;0.20;0.20;;;36.70;63.00;;;;;;5093909;28;20290;-61
2023/08/14 09:52:58;;;;;;;0.00;0.00;;;36.30;63.10;;;;;;5093801;28;20222;-61
2023/08/14 09:55:26;;;;;;;0.00;0.00;;;36.10;64.40;;;;;;5093818;28;20271;-61
2023/08/14 09:57:53;;;;;;;0.10;0.10;;;35.80;64.90;;;;;;5093693;28;20176;-61
2023/08/14 10:00:19;;;;;;;0.00;0.00;;;35.20;65.10;;;;;;5093747;28;20184;-61
2023/08/14 10:02:47;;;;;;;0.00;0.00;;;34.80;66.10;;;;;;5093828;28;20666;-61
2023/08/14 10:05:13;;;;;;;0.10;0.00;;;35.00;67.30;;;;;;5093420;28;20184;-61
2023/08/14 10:07:40;;;;;;;0.00;0.00;;;35.40;68.30;;;;;;5093679;28;20180;-62
2023/08/14 10:10:08;;;;;;;0.00;0.00;;;35.80;65.10;;;;;;5093519;28;20281;-61
2023/08/14 10:12:39;;;;;;;0.00;0.00;;;36.10;66.90;;;;;;5093264;28;20238;-61
2023/08/14 10:15:09;;;;;;;0.00;0.00;;;36.20;65.50;;;;;;5093453;28;20174;-61
2023/08/14 10:17:43;;;;;;;0.00;0.00;;;36.30;65.50;;;;;;5093579;28;20180;-61
2023/08/14 10:20:11;;;;;;;0.00;0.00;;;35.90;65.10;;;;;;5093343;28;20179;-61
2023/08/14 10:22:39;;;;;;;0.03;0.03;;;35.80;67.00;;;;;;5093406;28;20237;-61
2023/08/14 10:25:06;;;;;;;0.00;0.00;;;35.80;67.70;;;;;;5093271;28;20543;-61
2023/08/14 10:27:32;;;;;;;0.00;0.00;;;35.90;68.10;;;;;;5093309;28;20181;-61
2023/08/14 10:29:58;;;;;;;0.00;0.00;;;36.00;66.90;;;;;;5093037;28;20584;-61
2023/08/14 10:32:25;;;;;;;0.00;0.00;;;35.90;68.10;;;;;;5093310;28;20298;-61
2023/08/14 10:34:52;;;;;;;0.00;0.00;;;36.00;67.20;;;;;;5092979;28;20266;-61
2023/08/14 10:37:48;;;;;;;0.00;0.00;;;36.20;67.70;;;;;;5093107;28;20226;-61
2023/08/14 10:40:22;;;;;;;0.00;0.00;;;36.10;64.80;;;;;;5084235;28;20188;-62
2023/08/14 10:42:58;;;;;;;0.00;0.00;;;36.00;66.60;;;;;;5093067;28;20266;-61
2023/08/14 10:45:26;;;;;;;0.00;0.00;;;36.20;66.70;;;;;;5092929;28;20232;-61
2023/08/14 10:47:59;;;;;;;0.00;0.00;;;36.20;66.60;;;;;;5092612;28;20199;-60
2023/08/14 10:50:27;;;;;;;0.00;0.00;;;36.40;64.80;;;;;;5092894;28;20210;-60
2023/08/14 10:52:54;;;;;;;0.00;0.00;;;36.40;65.70;;;;;;5092621;28;20243;-60
2023/08/14 10:55:24;;;;;;;0.00;0.00;;;36.00;63.90;;;;;;5092640;28;20612;-60
2023/08/14 10:57:49;;;;;;;0.00;0.00;;;35.80;65.80;;;;;;5092708;28;20206;-60
2023/08/14 11:00:24;;;;;;;0.00;0.00;;;35.60;64.20;;;;;;5092496;28;20199;-60
2023/08/14 11:03:06;;;;;;;0.10;0.10;;;35.40;64.90;;;;;;5092601;28;20171;-60
2023/08/14 11:05:36;;;;;;;0.00;0.00;;;35.30;66.40;;;;;;5092532;28;20252;-60
2023/08/14 11:08:02;;;;;;;0.00;0.00;;;35.20;66.50;;;;;;5092439;28;20186;-60
2023/08/14 11:10:27;;;;;;;0.10;0.10;;;35.30;67.70;;;;;;5092480;28;20179;-60
2023/08/14 11:12:56;;;;;;;0.00;0.00;;;35.30;67.30;;;;;;5092271;28;20230;-60
2023/08/14 11:15:22;;;;;;;0.00;0.00;;;35.50;68.80;;;;;;5092402;28;20231;-61
2023/08/14 11:17:48;;;;;;;0.00;0.00;;;35.70;66.40;;;;;;5092617;28;20260;-62
2023/08/14 11:20:14;;;;;;;0.00;0.00;;;36.10;68.10;;;;;;5092073;28;20180;-61
2023/08/14 11:22:46;;;;;;;0.00;0.00;;;36.00;64.90;;;;;;5092269;28;20175;-62
2023/08/14 11:25:16;;;;;;;0.00;0.00;;;35.80;64.20;;;;;;5092157;28;20174;-62
2023/08/14 11:27:47;;;;;;;0.00;0.00;;;36.10;65.40;;;;;;5092149;28;20270;-61
2023/08/14 11:30:12;;;;;;;0.00;0.00;;;36.20;66.20;;;;;;5091989;28;20192;-61
2023/08/14 11:32:38;;;;;;;0.00;0.00;;;36.50;66.50;;;;;;5092011;28;20215;-62
2023/08/14 11:35:05;;;;;;;0.17;0.17;;;36.80;65.40;;;;;;5091950;28;20179;-62
2023/08/14 11:37:31;;;;;;;0.00;0.00;;;36.90;66.00;;;;;;5092041;28;20176;-62
2023/08/14 11:40:07;;;;;;;0.00;0.00;;;37.10;65.20;;;;;;5092041;28;20182;-61
2023/08/14 11:42:38;;;;;;;0.00;0.00;;;37.00;64.90;;;;;;5091972;28;20186;-62
2023/08/14 11:45:05;;;;;;;0.10;0.10;;;36.80;64.20;;;;;;5091857;28;20179;-62
2023/08/14 11:47:33;;;;;;;0.00;0.00;;;36.60;65.80;;;;;;5091678;28;20176;-61
2023/08/14 11:49:59;;;;;;;0.00;0.00;;;36.20;64.80;;;;;;5091795;28;20163;-61
2023/08/14 11:52:26;;;;;;;0.00;0.00;;;36.10;66.00;;;;;;5091815;28;20613;-61
2023/08/14 11:54:53;;;;;;;0.00;0.00;;;36.00;66.60;;;;;;5091740;28;20175;-62
2023/08/14 11:57:21;;;;;;;0.00;0.00;;;36.20;66.60;;;;;;5091802;28;20175;-62
2023/08/14 11:59:47;;;;;;;0.00;0.00;;;36.30;66.40;;;;;;5095068;28;20201;-62
2023/08/14 12:02:13;;;;;;;0.00;0.00;;;36.20;65.50;;;;;;5098351;28;20176;-62
2023/08/14 12:04:41;;;;;;;0.00;0.00;;;35.90;65.20;;;;;;5098521;28;20177;-62
2023/08/14 12:07:07;;;;;;;0.00;0.00;;;36.00;65.00;;;;;;5098560;28;20183;-61
2023/08/14 12:09:34;;;;;;;0.00;0.00;;;36.20;63.30;;;;;;5098542;28;20228;-61
2023/08/14 12:12:00;;;;;;;0.00;0.00;;;36.00;63.50;;;;;;5098354;28;20215;-61
2023/08/14 12:14:37;;;;;;;0.00;0.00;;;36.00;63.20;;;;;;5098496;28;20183;-62
2023/08/14 12:17:09;;;;;;;0.00;0.00;;;35.90;62.30;;;;;;5098430;28;20175;-62
2023/08/14 12:19:35;;;;;;;0.10;0.10;;;36.00;63.50;;;;;;5098416;28;20187;-62
2023/08/14 12:22:01;;;;;;;0.00;0.00;;;35.80;60.50;;;;;;5098315;28;20179;-62
2023/08/14 12:24:27;;;;;;;0.00;0.00;;;35.90;62.90;;;;;;5098741;28;20573;-61
2023/08/14 12:26:52;;;;;;;0.00;0.00;;;35.80;60.60;;;;;;5098253;28;20650;-62
2023/08/14 12:29:18;;;;;;;0.00;0.00;;;35.90;60.50;;;;;;5098025;28;20227;-61
2023/08/14 12:31:44;;;;;;;0.00;0.00;;;35.70;60.90;;;;;;5098166;28;20209;-62
2023/08/14 12:34:09;;;;;;;0.00;0.00;;;35.60;64.10;;;;;;5098178;28;20290;-61
2023/08/14 12:36:35;;;;;;;0.00;0.00;;;35.60;61.70;;;;;;5098382;28;20182;-62
2023/08/14 12:39:01;;;;;;;0.00;0.00;;;35.30;63.30;;;;;;5098250;28;20182;-61
2023/08/14 12:41:27;;;;;;;0.15;0.15;;;35.20;62.80;;;;;;5098324;28;20217;-62
2023/08/14 12:43:52;;;;;;;0.00;0.00;;;35.30;62.50;;;;;;5098167;28;20171;-62
2023/08/14 12:46:18;;;;;;;0.00;0.00;;;35.20;62.20;;;;;;5098058;28;20172;-62